sensor_id;sensor_type;location;lat;lon;timestamp;temperature;humidity
15906;DHT22;8051;50.820;4.884;2023-11-18T00:01:25;4.90;99.90
15906;DHT22;8051;50.820;4.884;2023-11-18T00:03:53;4.90;99.90
15906;DHT22;8051;50.820;4.884;2023-11-18T00:06:21;4.90;99.90
15906;DHT22;8051;50.820;4.884;2023-11-18T00:08:50;4.90;99.90
15906;DHT22;8051;50.820;4.884;2023-11-18T00:11:17;4.90;99.90
15906;DHT22;8051;50.820;4.884;2023-11-18T00:13:45;4.90;99.90
15906;DHT22;8051;50.820;4.884;2023-11-18T00:16:12;5.00;99.90
15906;DHT22;8051;50.820;4.884;2023-11-18T00:18:41;5.00;99.90
15906;DHT22;8051;50.820;4.884;2023-11-18T00:21:10;5.00;99.90
15906;DHT22;8051;50.820;4.884;2023-11-18T00:23:37;4.90;99.90
15906;DHT22;8051;50.820;4.884;2023-11-18T00:26:06;4.90;99.90
15906;DHT22;8051;50.820;4.884;2023-11-18T00:28:34;4.90;99.90
15906;DHT22;8051;50.820;4.884;2023-11-18T00:31:02;4.90;99.90
15906;DHT22;8051;50.820;4.884;2023-11-18T00:33:30;4.90;99.90
15906;DHT22;8051;50.820;4.884;2023-11-18T00:35:58;4.90;99.90
15906;DHT22;8051;50.820;4.884;2023-11-18T00:38:26;4.90;99.90
15906;DHT22;8051;50.820;4.884;2023-11-18T00:40:54;4.90;99.90
15906;DHT22;8051;50.820;4.884;2023-11-18T00:43:23;4.80;99.90
15906;DHT22;8051;50.820;4.884;2023-11-18T00:45:51;4.90;99.90
15906;DHT22;8051;50.820;4.884;2023-11-18T00:48:18;4.90;99.90
15906;DHT22;8051;50.820;4.884;2023-11-18T00:50:46;4.90;99.90
15906;DHT22;8051;50.820;4.884;2023-11-18T00:53:13;5.00;99.90
15906;DHT22;8051;50.820;4.884;2023-11-18T00:55:41;4.90;99.90
15906;DHT22;8051;50.820;4.884;2023-11-18T00:58:08;4.90;99.90
15906;DHT22;8051;50.820;4.884;2023-11-18T01:00:37;5.00;99.90
15906;DHT22;8051;50.820;4.884;2023-11-18T01:03:04;4.90;99.90
15906;DHT22;8051;50.820;4.884;2023-11-18T01:05:32;4.90;99.90
15906;DHT22;8051;50.820;4.884;2023-11-18T01:08:00;5.00;99.90
15906;DHT22;8051;50.820;4.884;2023-11-18T01:10:28;4.90;99.90
15906;DHT22;8051;50.820;4.884;2023-11-18T01:12:56;5.00;99.90
15906;DHT22;8051;50.820;4.884;2023-11-18T01:15:23;5.00;99.90
15906;DHT22;8051;50.820;4.884;2023-11-18T01:17:52;5.00;99.90
15906;DHT22;8051;50.820;4.884;2023-11-18T01:20:20;5.00;99.90
15906;DHT22;8051;50.820;4.884;2023-11-18T01:22:48;5.00;99.90
15906;DHT22;8051;50.820;4.884;2023-11-18T01:25:16;5.10;99.90
15906;DHT22;8051;50.820;4.884;2023-11-18T01:27:44;5.10;99.90
15906;DHT22;8051;50.820;4.884;2023-11-18T01:30:14;5.10;99.90
15906;DHT22;8051;50.820;4.884;2023-11-18T01:32:41;5.10;99.90
15906;DHT22;8051;50.820;4.884;2023-11-18T01:35:11;5.10;99.90
15906;DHT22;8051;50.820;4.884;2023-11-18T01:37:39;5.10;99.90
15906;DHT22;8051;50.820;4.884;2023-11-18T01:40:07;5.10;99.90
15906;DHT22;8051;50.820;4.884;2023-11-18T01:42:38;5.10;99.90
15906;DHT22;8051;50.820;4.884;2023-11-18T01:45:06;5.10;99.90
15906;DHT22;8051;50.820;4.884;2023-11-18T01:47:37;5.10;99.90
15906;DHT22;8051;50.820;4.884;2023-11-18T01:50:07;5.10;99.90
15906;DHT22;8051;50.820;4.884;2023-11-18T01:52:36;5.10;99.90
15906;DHT22;8051;50.820;4.884;2023-11-18T01:55:05;5.10;99.90
15906;DHT22;8051;50.820;4.884;2023-11-18T01:57:33;5.10;99.90
15906;DHT22;8051;50.820;4.884;2023-11-18T02:00:01;5.10;99.90
15906;DHT22;8051;50.820;4.884;2023-11-18T02:02:32;5.10;99.90
15906;DHT22;8051;50.820;4.884;2023-11-18T02:05:01;5.10;99.90
15906;DHT22;8051;50.820;4.884;2023-11-18T02:07:32;5.10;99.90
15906;DHT22;8051;50.820;4.884;2023-11-18T02:10:03;5.10;99.90
15906;DHT22;8051;50.820;4.884;2023-11-18T02:12:39;5.10;99.90
15906;DHT22;8051;50.820;4.884;2023-11-18T02:15:10;5.10;99.90
15906;DHT22;8051;50.820;4.884;2023-11-18T02:17:39;5.10;99.90
15906;DHT22;8051;50.820;4.884;2023-11-18T02:20:09;5.00;99.90
15906;DHT22;8051;50.820;4.884;2023-11-18T02:22:42;5.00;99.90
15906;DHT22;8051;50.820;4.884;2023-11-18T02:25:16;5.00;99.90
15906;DHT22;8051;50.820;4.884;2023-11-18T02:27:46;5.00;99.90
15906;DHT22;8051;50.820;4.884;2023-11-18T02:30:15;5.00;99.90
15906;DHT22;8051;50.820;4.884;2023-11-18T02:32:46;5.00;99.90
15906;DHT22;8051;50.820;4.884;2023-11-18T02:35:20;5.00;99.90
15906;DHT22;8051;50.820;4.884;2023-11-18T02:37:50;5.00;99.90
15906;DHT22;8051;50.820;4.884;2023-11-18T02:40:27;5.00;99.90
15906;DHT22;8051;50.820;4.884;2023-11-18T02:42:59;5.10;99.90
15906;DHT22;8051;50.820;4.884;2023-11-18T02:45:28;5.10;99.90
15906;DHT22;8051;50.820;4.884;2023-11-18T02:47:57;5.10;99.90
15906;DHT22;8051;50.820;4.884;2023-11-18T02:50:26;5.20;99.90
15906;DHT22;8051;50.820;4.884;2023-11-18T02:52:54;5.10;99.90
15906;DHT22;8051;50.820;4.884;2023-11-18T02:55:22;5.20;99.90
15906;DHT22;8051;50.820;4.884;2023-11-18T02:57:50;5.20;99.90
15906;DHT22;8051;50.820;4.884;2023-11-18T03:00:20;5.20;99.90
15906;DHT22;8051;50.820;4.884;2023-11-18T03:02:49;5.20;99.90
15906;DHT22;8051;50.820;4.884;2023-11-18T03:05:17;5.20;99.90
15906;DHT22;8051;50.820;4.884;2023-11-18T03:07:45;5.20;99.90
15906;DHT22;8051;50.820;4.884;2023-11-18T03:10:15;5.20;99.90
15906;DHT22;8051;50.820;4.884;2023-11-18T03:12:48;5.20;99.90
15906;DHT22;8051;50.820;4.884;2023-11-18T03:15:15;5.10;99.90
15906;DHT22;8051;50.820;4.884;2023-11-18T03:17:45;5.10;99.90
15906;DHT22;8051;50.820;4.884;2023-11-18T03:20:14;5.10;99.90
15906;DHT22;8051;50.820;4.884;2023-11-18T03:22:42;5.10;99.90
15906;DHT22;8051;50.820;4.884;2023-11-18T03:25:11;5.00;99.90
15906;DHT22;8051;50.820;4.884;2023-11-18T03:27:39;5.00;99.90
15906;DHT22;8051;50.820;4.884;2023-11-18T03:30:07;5.10;99.90
15906;DHT22;8051;50.820;4.884;2023-11-18T03:32:35;5.00;99.90
15906;DHT22;8051;50.820;4.884;2023-11-18T03:35:05;5.10;99.90
15906;DHT22;8051;50.820;4.884;2023-11-18T03:37:34;5.10;99.90
15906;DHT22;8051;50.820;4.884;2023-11-18T03:40:05;5.10;99.90
15906;DHT22;8051;50.820;4.884;2023-11-18T03:42:33;5.10;99.90
15906;DHT22;8051;50.820;4.884;2023-11-18T03:45:04;5.10;99.90
15906;DHT22;8051;50.820;4.884;2023-11-18T03:47:31;5.10;99.90
15906;DHT22;8051;50.820;4.884;2023-11-18T03:49:59;5.10;99.90
15906;DHT22;8051;50.820;4.884;2023-11-18T03:52:28;5.20;99.90
15906;DHT22;8051;50.820;4.884;2023-11-18T03:54:56;5.20;99.90
15906;DHT22;8051;50.820;4.884;2023-11-18T03:57:23;5.20;99.90
15906;DHT22;8051;50.820;4.884;2023-11-18T03:59:51;5.30;99.90
15906;DHT22;8051;50.820;4.884;2023-11-18T04:02:19;5.30;99.90
15906;DHT22;8051;50.820;4.884;2023-11-18T04:04:46;5.30;99.90
15906;DHT22;8051;50.820;4.884;2023-11-18T04:07:14;5.40;99.90
15906;DHT22;8051;50.820;4.884;2023-11-18T04:09:43;5.40;99.90
15906;DHT22;8051;50.820;4.884;2023-11-18T04:12:10;5.40;99.90
15906;DHT22;8051;50.820;4.884;2023-11-18T04:14:38;5.40;99.90
15906;DHT22;8051;50.820;4.884;2023-11-18T04:17:05;5.50;99.90
15906;DHT22;8051;50.820;4.884;2023-11-18T04:19:34;5.50;99.90
15906;DHT22;8051;50.820;4.884;2023-11-18T04:22:01;5.50;99.90
15906;DHT22;8051;50.820;4.884;2023-11-18T04:24:30;5.50;99.90
15906;DHT22;8051;50.820;4.884;2023-11-18T04:26:59;5.60;99.90
15906;DHT22;8051;50.820;4.884;2023-11-18T04:29:26;5.60;99.90
15906;DHT22;8051;50.820;4.884;2023-11-18T04:31:54;5.60;99.90
15906;DHT22;8051;50.820;4.884;2023-11-18T04:34:22;5.60;99.90
15906;DHT22;8051;50.820;4.884;2023-11-18T04:36:50;5.60;99.90
15906;DHT22;8051;50.820;4.884;2023-11-18T04:39:18;5.60;99.90
15906;DHT22;8051;50.820;4.884;2023-11-18T04:41:47;5.60;99.90
15906;DHT22;8051;50.820;4.884;2023-11-18T04:44:16;5.60;99.90
15906;DHT22;8051;50.820;4.884;2023-11-18T04:46:43;5.60;99.90
15906;DHT22;8051;50.820;4.884;2023-11-18T04:49:11;5.60;99.90
15906;DHT22;8051;50.820;4.884;2023-11-18T04:51:38;5.60;99.90
15906;DHT22;8051;50.820;4.884;2023-11-18T04:54:06;5.70;99.90
15906;DHT22;8051;50.820;4.884;2023-11-18T04:56:34;5.70;99.90
15906;DHT22;8051;50.820;4.884;2023-11-18T04:59:02;5.70;99.90
15906;DHT22;8051;50.820;4.884;2023-11-18T05:01:32;5.70;99.90
15906;DHT22;8051;50.820;4.884;2023-11-18T05:03:59;5.70;99.90
15906;DHT22;8051;50.820;4.884;2023-11-18T05:06:27;5.70;99.90
15906;DHT22;8051;50.820;4.884;2023-11-18T05:08:54;5.70;99.90
15906;DHT22;8051;50.820;4.884;2023-11-18T05:11:22;5.80;99.90
15906;DHT22;8051;50.820;4.884;2023-11-18T05:13:49;5.80;99.90
15906;DHT22;8051;50.820;4.884;2023-11-18T05:16:17;5.80;99.90
15906;DHT22;8051;50.820;4.884;2023-11-18T05:18:46;5.80;99.90
15906;DHT22;8051;50.820;4.884;2023-11-18T05:21:13;5.80;99.90
15906;DHT22;8051;50.820;4.884;2023-11-18T05:23:41;5.80;99.90
15906;DHT22;8051;50.820;4.884;2023-11-18T05:26:08;5.80;99.90
15906;DHT22;8051;50.820;4.884;2023-11-18T05:28:36;5.80;99.90
15906;DHT22;8051;50.820;4.884;2023-11-18T05:31:04;5.80;99.90
15906;DHT22;8051;50.820;4.884;2023-11-18T05:33:32;5.90;99.90
15906;DHT22;8051;50.820;4.884;2023-11-18T05:36:03;5.90;99.90
15906;DHT22;8051;50.820;4.884;2023-11-18T05:38:32;5.90;99.90
15906;DHT22;8051;50.820;4.884;2023-11-18T05:41:00;5.90;99.90
15906;DHT22;8051;50.820;4.884;2023-11-18T05:43:30;5.90;99.90
15906;DHT22;8051;50.820;4.884;2023-11-18T05:46:02;6.00;99.90
15906;DHT22;8051;50.820;4.884;2023-11-18T05:48:46;6.00;99.90
15906;DHT22;8051;50.820;4.884;2023-11-18T05:51:19;6.00;99.90
15906;DHT22;8051;50.820;4.884;2023-11-18T05:53:47;6.00;99.90
15906;DHT22;8051;50.820;4.884;2023-11-18T05:56:15;6.00;99.90
15906;DHT22;8051;50.820;4.884;2023-11-18T05:58:44;6.00;99.90
15906;DHT22;8051;50.820;4.884;2023-11-18T06:01:12;6.00;99.90
15906;DHT22;8051;50.820;4.884;2023-11-18T06:03:41;6.00;99.90
15906;DHT22;8051;50.820;4.884;2023-11-18T06:06:11;6.00;99.90
15906;DHT22;8051;50.820;4.884;2023-11-18T06:08:40;6.10;99.90
15906;DHT22;8051;50.820;4.884;2023-11-18T06:11:09;6.10;99.90
15906;DHT22;8051;50.820;4.884;2023-11-18T06:13:40;6.10;99.90
15906;DHT22;8051;50.820;4.884;2023-11-18T06:16:12;6.10;99.90
15906;DHT22;8051;50.820;4.884;2023-11-18T06:18:42;6.10;99.90
15906;DHT22;8051;50.820;4.884;2023-11-18T06:21:12;6.10;99.90
15906;DHT22;8051;50.820;4.884;2023-11-18T06:23:42;6.20;99.90
15906;DHT22;8051;50.820;4.884;2023-11-18T06:26:10;6.20;99.90
15906;DHT22;8051;50.820;4.884;2023-11-18T06:28:39;6.20;99.90
15906;DHT22;8051;50.820;4.884;2023-11-18T06:31:07;6.30;99.90
15906;DHT22;8051;50.820;4.884;2023-11-18T06:33:39;6.30;99.90
15906;DHT22;8051;50.820;4.884;2023-11-18T06:36:09;6.30;99.90
15906;DHT22;8051;50.820;4.884;2023-11-18T06:38:38;6.40;99.90
15906;DHT22;8051;50.820;4.884;2023-11-18T06:41:07;6.40;99.90
15906;DHT22;8051;50.820;4.884;2023-11-18T06:43:38;6.50;99.90
15906;DHT22;8051;50.820;4.884;2023-11-18T06:46:18;6.50;99.90
15906;DHT22;8051;50.820;4.884;2023-11-18T06:48:48;6.50;99.90
15906;DHT22;8051;50.820;4.884;2023-11-18T06:51:16;6.60;99.90
15906;DHT22;8051;50.820;4.884;2023-11-18T06:53:43;6.60;99.90
15906;DHT22;8051;50.820;4.884;2023-11-18T06:56:12;6.60;99.90
15906;DHT22;8051;50.820;4.884;2023-11-18T06:58:41;6.70;99.90
15906;DHT22;8051;50.820;4.884;2023-11-18T07:01:12;6.70;99.90
15906;DHT22;8051;50.820;4.884;2023-11-18T07:03:40;6.70;99.90
15906;DHT22;8051;50.820;4.884;2023-11-18T07:06:08;6.70;99.90
15906;DHT22;8051;50.820;4.884;2023-11-18T07:08:36;6.70;99.90
15906;DHT22;8051;50.820;4.884;2023-11-18T07:11:04;6.80;99.90
15906;DHT22;8051;50.820;4.884;2023-11-18T07:13:33;6.70;99.90
15906;DHT22;8051;50.820;4.884;2023-11-18T07:16:01;6.80;99.90
15906;DHT22;8051;50.820;4.884;2023-11-18T07:18:29;6.80;99.90
15906;DHT22;8051;50.820;4.884;2023-11-18T07:20:59;6.80;99.90
15906;DHT22;8051;50.820;4.884;2023-11-18T07:23:26;6.80;99.90
15906;DHT22;8051;50.820;4.884;2023-11-18T07:25:53;6.80;99.90
15906;DHT22;8051;50.820;4.884;2023-11-18T07:28:22;6.90;99.90
15906;DHT22;8051;50.820;4.884;2023-11-18T07:30:51;6.90;99.90
15906;DHT22;8051;50.820;4.884;2023-11-18T07:33:20;6.90;99.90
15906;DHT22;8051;50.820;4.884;2023-11-18T07:35:48;6.90;99.90
15906;DHT22;8051;50.820;4.884;2023-11-18T07:38:15;6.90;99.90
15906;DHT22;8051;50.820;4.884;2023-11-18T07:40:43;6.90;99.90
15906;DHT22;8051;50.820;4.884;2023-11-18T07:43:11;6.90;99.90
15906;DHT22;8051;50.820;4.884;2023-11-18T07:45:39;6.90;99.90
15906;DHT22;8051;50.820;4.884;2023-11-18T07:48:09;6.90;99.90
15906;DHT22;8051;50.820;4.884;2023-11-18T07:50:38;6.90;99.90
15906;DHT22;8051;50.820;4.884;2023-11-18T07:53:07;6.90;99.90
15906;DHT22;8051;50.820;4.884;2023-11-18T07:55:34;7.00;99.90
15906;DHT22;8051;50.820;4.884;2023-11-18T07:58:05;7.00;99.90
15906;DHT22;8051;50.820;4.884;2023-11-18T08:00:36;7.00;99.90
15906;DHT22;8051;50.820;4.884;2023-11-18T08:03:05;7.00;99.90
15906;DHT22;8051;50.820;4.884;2023-11-18T08:05:38;7.00;99.90
15906;DHT22;8051;50.820;4.884;2023-11-18T08:08:06;7.00;99.90
15906;DHT22;8051;50.820;4.884;2023-11-18T08:10:34;7.10;99.90
15906;DHT22;8051;50.820;4.884;2023-11-18T08:13:04;7.10;99.90
15906;DHT22;8051;50.820;4.884;2023-11-18T08:15:32;7.10;99.90
15906;DHT22;8051;50.820;4.884;2023-11-18T08:18:00;7.10;99.90
15906;DHT22;8051;50.820;4.884;2023-11-18T08:20:28;7.10;99.90
15906;DHT22;8051;50.820;4.884;2023-11-18T08:22:58;7.10;99.90
15906;DHT22;8051;50.820;4.884;2023-11-18T08:25:25;7.10;99.90
15906;DHT22;8051;50.820;4.884;2023-11-18T08:27:53;7.10;99.90
15906;DHT22;8051;50.820;4.884;2023-11-18T08:30:20;7.10;99.90
15906;DHT22;8051;50.820;4.884;2023-11-18T08:32:49;7.00;99.90
15906;DHT22;8051;50.820;4.884;2023-11-18T08:35:17;7.00;99.90
15906;DHT22;8051;50.820;4.884;2023-11-18T08:37:45;7.00;99.90
15906;DHT22;8051;50.820;4.884;2023-11-18T08:40:15;7.10;99.90
15906;DHT22;8051;50.820;4.884;2023-11-18T08:42:47;7.00;99.90
15906;DHT22;8051;50.820;4.884;2023-11-18T08:45:16;7.00;99.90
15906;DHT22;8051;50.820;4.884;2023-11-18T08:47:44;7.10;99.90
15906;DHT22;8051;50.820;4.884;2023-11-18T08:50:13;7.10;99.90
15906;DHT22;8051;50.820;4.884;2023-11-18T08:52:42;7.10;99.90
15906;DHT22;8051;50.820;4.884;2023-11-18T08:55:14;7.10;99.90
15906;DHT22;8051;50.820;4.884;2023-11-18T08:57:47;7.10;99.90
15906;DHT22;8051;50.820;4.884;2023-11-18T09:00:26;7.10;99.90
15906;DHT22;8051;50.820;4.884;2023-11-18T09:03:23;7.10;99.90
15906;DHT22;8051;50.820;4.884;2023-11-18T09:05:55;7.10;99.90
15906;DHT22;8051;50.820;4.884;2023-11-18T09:08:24;7.20;99.90
15906;DHT22;8051;50.820;4.884;2023-11-18T09:10:54;7.20;99.90
15906;DHT22;8051;50.820;4.884;2023-11-18T09:13:22;7.20;99.90
15906;DHT22;8051;50.820;4.884;2023-11-18T09:15:52;7.20;99.90
15906;DHT22;8051;50.820;4.884;2023-11-18T09:18:22;7.20;99.90
15906;DHT22;8051;50.820;4.884;2023-11-18T09:20:50;7.20;99.90
15906;DHT22;8051;50.820;4.884;2023-11-18T09:23:18;7.20;99.90
15906;DHT22;8051;50.820;4.884;2023-11-18T09:25:46;7.30;99.90
15906;DHT22;8051;50.820;4.884;2023-11-18T09:28:16;7.30;99.90
15906;DHT22;8051;50.820;4.884;2023-11-18T09:30:45;7.30;99.90
15906;DHT22;8051;50.820;4.884;2023-11-18T09:33:20;7.30;99.90
15906;DHT22;8051;50.820;4.884;2023-11-18T09:35:55;7.30;99.90
15906;DHT22;8051;50.820;4.884;2023-11-18T09:38:26;7.40;99.90
15906;DHT22;8051;50.820;4.884;2023-11-18T09:40:57;7.40;99.90
15906;DHT22;8051;50.820;4.884;2023-11-18T09:43:30;7.40;99.90
15906;DHT22;8051;50.820;4.884;2023-11-18T09:46:05;7.50;99.90
15906;DHT22;8051;50.820;4.884;2023-11-18T09:48:42;7.50;99.90
15906;DHT22;8051;50.820;4.884;2023-11-18T09:51:15;7.50;99.90
15906;DHT22;8051;50.820;4.884;2023-11-18T09:53:49;7.50;99.90
15906;DHT22;8051;50.820;4.884;2023-11-18T09:56:23;7.60;99.90
15906;DHT22;8051;50.820;4.884;2023-11-18T09:59:05;7.60;99.90
15906;DHT22;8051;50.820;4.884;2023-11-18T10:01:38;7.70;99.90
15906;DHT22;8051;50.820;4.884;2023-11-18T10:04:08;7.70;99.90
15906;DHT22;8051;50.820;4.884;2023-11-18T10:06:37;7.70;99.90
15906;DHT22;8051;50.820;4.884;2023-11-18T10:09:06;7.60;99.90
15906;DHT22;8051;50.820;4.884;2023-11-18T10:11:43;7.70;99.90
15906;DHT22;8051;50.820;4.884;2023-11-18T10:14:14;7.70;99.90
15906;DHT22;8051;50.820;4.884;2023-11-18T10:16:45;7.70;99.90
15906;DHT22;8051;50.820;4.884;2023-11-18T10:19:19;7.70;99.90
15906;DHT22;8051;50.820;4.884;2023-11-18T10:21:47;7.80;99.90
15906;DHT22;8051;50.820;4.884;2023-11-18T10:24:15;7.80;99.90
15906;DHT22;8051;50.820;4.884;2023-11-18T10:26:46;7.90;99.90
15906;DHT22;8051;50.820;4.884;2023-11-18T10:29:24;7.80;99.90
15906;DHT22;8051;50.820;4.884;2023-11-18T10:32:05;7.90;99.90
15906;DHT22;8051;50.820;4.884;2023-11-18T10:34:42;7.90;99.90
15906;DHT22;8051;50.820;4.884;2023-11-18T10:37:09;8.00;99.90
15906;DHT22;8051;50.820;4.884;2023-11-18T10:39:37;8.00;99.90
15906;DHT22;8051;50.820;4.884;2023-11-18T10:42:05;8.00;99.90
15906;DHT22;8051;50.820;4.884;2023-11-18T10:44:35;8.00;99.90
15906;DHT22;8051;50.820;4.884;2023-11-18T10:47:03;8.10;99.90
15906;DHT22;8051;50.820;4.884;2023-11-18T10:49:32;8.10;99.90
15906;DHT22;8051;50.820;4.884;2023-11-18T10:52:03;8.00;99.90
15906;DHT22;8051;50.820;4.884;2023-11-18T10:54:34;8.00;99.90
15906;DHT22;8051;50.820;4.884;2023-11-18T10:57:04;8.00;99.90
15906;DHT22;8051;50.820;4.884;2023-11-18T10:59:36;8.00;99.90
15906;DHT22;8051;50.820;4.884;2023-11-18T11:02:23;8.00;99.90
15906;DHT22;8051;50.820;4.884;2023-11-18T11:04:51;8.00;99.90
15906;DHT22;8051;50.820;4.884;2023-11-18T11:07:19;8.00;99.90
15906;DHT22;8051;50.820;4.884;2023-11-18T11:09:49;8.10;99.90
15906;DHT22;8051;50.820;4.884;2023-11-18T11:12:23;8.10;99.90
15906;DHT22;8051;50.820;4.884;2023-11-18T11:14:59;8.10;99.90
15906;DHT22;8051;50.820;4.884;2023-11-18T11:17:30;8.10;99.90
15906;DHT22;8051;50.820;4.884;2023-11-18T11:20:05;8.00;99.90
15906;DHT22;8051;50.820;4.884;2023-11-18T11:22:56;8.10;99.90
15906;DHT22;8051;50.820;4.884;2023-11-18T11:25:40;8.10;99.90
15906;DHT22;8051;50.820;4.884;2023-11-18T11:28:14;8.10;99.90
15906;DHT22;8051;50.820;4.884;2023-11-18T11:30:46;8.10;99.90
15906;DHT22;8051;50.820;4.884;2023-11-18T11:33:18;8.10;99.90
15906;DHT22;8051;50.820;4.884;2023-11-18T11:35:53;8.10;99.90
15906;DHT22;8051;50.820;4.884;2023-11-18T11:38:24;8.10;99.90
15906;DHT22;8051;50.820;4.884;2023-11-18T11:40:54;8.10;99.90
15906;DHT22;8051;50.820;4.884;2023-11-18T11:43:24;8.20;99.90
15906;DHT22;8051;50.820;4.884;2023-11-18T11:45:55;8.10;99.90
15906;DHT22;8051;50.820;4.884;2023-11-18T11:48:24;8.10;99.90
15906;DHT22;8051;50.820;4.884;2023-11-18T11:51:16;8.10;99.90
15906;DHT22;8051;50.820;4.884;2023-11-18T11:53:49;8.20;99.90
15906;DHT22;8051;50.820;4.884;2023-11-18T11:56:19;8.20;99.90
15906;DHT22;8051;50.820;4.884;2023-11-18T11:58:50;8.20;99.90
15906;DHT22;8051;50.820;4.884;2023-11-18T12:01:25;8.20;99.90
15906;DHT22;8051;50.820;4.884;2023-11-18T12:03:58;8.30;99.90
15906;DHT22;8051;50.820;4.884;2023-11-18T12:06:32;8.20;99.90
15906;DHT22;8051;50.820;4.884;2023-11-18T12:09:03;8.30;99.90
15906;DHT22;8051;50.820;4.884;2023-11-18T12:11:33;8.30;99.90
15906;DHT22;8051;50.820;4.884;2023-11-18T12:14:15;8.30;99.90
15906;DHT22;8051;50.820;4.884;2023-11-18T12:17:05;8.40;99.90
15906;DHT22;8051;50.820;4.884;2023-11-18T12:19:37;8.50;99.90
15906;DHT22;8051;50.820;4.884;2023-11-18T12:22:13;8.50;99.90
15906;DHT22;8051;50.820;4.884;2023-11-18T12:24:45;8.50;99.90
15906;DHT22;8051;50.820;4.884;2023-11-18T12:27:42;8.50;99.90
15906;DHT22;8051;50.820;4.884;2023-11-18T12:30:40;8.50;99.90
15906;DHT22;8051;50.820;4.884;2023-11-18T12:33:19;8.50;99.90
15906;DHT22;8051;50.820;4.884;2023-11-18T12:39:43;8.40;99.90
15906;DHT22;8051;50.820;4.884;2023-11-18T12:42:40;8.40;99.90
15906;DHT22;8051;50.820;4.884;2023-11-18T12:45:35;8.40;99.90
15906;DHT22;8051;50.820;4.884;2023-11-18T12:48:14;8.30;99.90
15906;DHT22;8051;50.820;4.884;2023-11-18T12:50:42;8.30;99.90
15906;DHT22;8051;50.820;4.884;2023-11-18T12:53:11;8.30;99.90
15906;DHT22;8051;50.820;4.884;2023-11-18T12:55:40;8.30;99.90
15906;DHT22;8051;50.820;4.884;2023-11-18T12:58:09;8.30;99.90
15906;DHT22;8051;50.820;4.884;2023-11-18T13:00:40;8.30;99.90
15906;DHT22;8051;50.820;4.884;2023-11-18T13:03:10;8.30;99.90
15906;DHT22;8051;50.820;4.884;2023-11-18T13:05:41;8.30;99.90
15906;DHT22;8051;50.820;4.884;2023-11-18T13:08:09;8.30;99.90
15906;DHT22;8051;50.820;4.884;2023-11-18T13:10:37;8.30;99.90
15906;DHT22;8051;50.820;4.884;2023-11-18T13:13:05;8.30;99.90
15906;DHT22;8051;50.820;4.884;2023-11-18T13:15:35;8.40;99.90
15906;DHT22;8051;50.820;4.884;2023-11-18T13:18:04;8.40;99.90
15906;DHT22;8051;50.820;4.884;2023-11-18T13:20:34;8.40;99.90
15906;DHT22;8051;50.820;4.884;2023-11-18T13:23:02;8.30;99.90
15906;DHT22;8051;50.820;4.884;2023-11-18T13:25:34;8.30;99.90
15906;DHT22;8051;50.820;4.884;2023-11-18T13:28:05;8.40;99.90
15906;DHT22;8051;50.820;4.884;2023-11-18T13:30:33;8.30;99.90
15906;DHT22;8051;50.820;4.884;2023-11-18T13:33:01;8.30;99.90
15906;DHT22;8051;50.820;4.884;2023-11-18T13:35:29;8.40;99.90
15906;DHT22;8051;50.820;4.884;2023-11-18T13:37:58;8.40;99.90
15906;DHT22;8051;50.820;4.884;2023-11-18T13:40:25;8.40;99.90
15906;DHT22;8051;50.820;4.884;2023-11-18T13:43:02;8.40;99.90
15906;DHT22;8051;50.820;4.884;2023-11-18T13:45:31;8.50;99.90
15906;DHT22;8051;50.820;4.884;2023-11-18T13:48:00;8.40;99.90
15906;DHT22;8051;50.820;4.884;2023-11-18T13:50:28;8.40;99.90
15906;DHT22;8051;50.820;4.884;2023-11-18T13:52:57;8.50;99.90
15906;DHT22;8051;50.820;4.884;2023-11-18T13:55:26;8.50;99.90
15906;DHT22;8051;50.820;4.884;2023-11-18T13:57:54;8.50;99.90
15906;DHT22;8051;50.820;4.884;2023-11-18T14:00:25;8.50;99.90
15906;DHT22;8051;50.820;4.884;2023-11-18T14:02:54;8.60;99.90
15906;DHT22;8051;50.820;4.884;2023-11-18T14:05:23;8.60;99.90
15906;DHT22;8051;50.820;4.884;2023-11-18T14:07:52;8.60;99.90
15906;DHT22;8051;50.820;4.884;2023-11-18T14:10:22;8.60;99.90
15906;DHT22;8051;50.820;4.884;2023-11-18T14:13:01;8.60;99.90
15906;DHT22;8051;50.820;4.884;2023-11-18T14:15:31;8.60;99.90
15906;DHT22;8051;50.820;4.884;2023-11-18T14:18:01;8.70;99.90
15906;DHT22;8051;50.820;4.884;2023-11-18T14:20:29;8.70;99.90
15906;DHT22;8051;50.820;4.884;2023-11-18T14:22:57;8.60;99.90
15906;DHT22;8051;50.820;4.884;2023-11-18T14:25:26;8.60;99.90
15906;DHT22;8051;50.820;4.884;2023-11-18T14:27:54;8.70;99.90
15906;DHT22;8051;50.820;4.884;2023-11-18T14:30:22;8.70;99.90
15906;DHT22;8051;50.820;4.884;2023-11-18T14:32:51;8.70;99.90
15906;DHT22;8051;50.820;4.884;2023-11-18T14:35:18;8.70;99.90
15906;DHT22;8051;50.820;4.884;2023-11-18T14:37:46;8.70;99.90
15906;DHT22;8051;50.820;4.884;2023-11-18T14:40:14;8.80;99.90
15906;DHT22;8051;50.820;4.884;2023-11-18T14:42:45;8.80;99.90
15906;DHT22;8051;50.820;4.884;2023-11-18T14:45:14;8.80;99.90
15906;DHT22;8051;50.820;4.884;2023-11-18T14:47:42;8.80;99.90
15906;DHT22;8051;50.820;4.884;2023-11-18T14:50:12;8.80;99.90
15906;DHT22;8051;50.820;4.884;2023-11-18T14:52:44;8.80;99.90
15906;DHT22;8051;50.820;4.884;2023-11-18T14:55:12;8.80;99.90
15906;DHT22;8051;50.820;4.884;2023-11-18T14:57:40;8.80;99.90
15906;DHT22;8051;50.820;4.884;2023-11-18T15:00:12;8.80;99.90
15906;DHT22;8051;50.820;4.884;2023-11-18T15:02:46;8.80;99.90
15906;DHT22;8051;50.820;4.884;2023-11-18T15:05:15;8.80;99.90
15906;DHT22;8051;50.820;4.884;2023-11-18T15:07:45;8.80;99.90
15906;DHT22;8051;50.820;4.884;2023-11-18T15:10:15;8.90;99.90
15906;DHT22;8051;50.820;4.884;2023-11-18T15:12:46;8.90;99.90
15906;DHT22;8051;50.820;4.884;2023-11-18T15:15:15;8.90;99.90
15906;DHT22;8051;50.820;4.884;2023-11-18T15:17:47;9.00;99.90
15906;DHT22;8051;50.820;4.884;2023-11-18T15:20:16;9.00;99.90
15906;DHT22;8051;50.820;4.884;2023-11-18T15:22:45;9.00;99.90
15906;DHT22;8051;50.820;4.884;2023-11-18T15:25:13;9.00;99.90
15906;DHT22;8051;50.820;4.884;2023-11-18T15:27:43;9.10;99.90
15906;DHT22;8051;50.820;4.884;2023-11-18T15:30:14;9.10;99.90
15906;DHT22;8051;50.820;4.884;2023-11-18T15:32:43;9.10;99.90
15906;DHT22;8051;50.820;4.884;2023-11-18T15:35:12;9.10;99.90
15906;DHT22;8051;50.820;4.884;2023-11-18T15:37:43;9.10;99.90
15906;DHT22;8051;50.820;4.884;2023-11-18T15:40:13;9.10;99.90
15906;DHT22;8051;50.820;4.884;2023-11-18T15:42:41;9.10;99.90
15906;DHT22;8051;50.820;4.884;2023-11-18T15:45:10;9.10;99.90
15906;DHT22;8051;50.820;4.884;2023-11-18T15:47:40;9.20;99.90
15906;DHT22;8051;50.820;4.884;2023-11-18T15:50:10;9.10;99.90
15906;DHT22;8051;50.820;4.884;2023-11-18T15:52:41;9.20;99.90
15906;DHT22;8051;50.820;4.884;2023-11-18T15:55:08;9.20;99.90
15906;DHT22;8051;50.820;4.884;2023-11-18T15:57:40;9.20;99.90
15906;DHT22;8051;50.820;4.884;2023-11-18T16:00:09;9.20;99.90
15906;DHT22;8051;50.820;4.884;2023-11-18T16:02:43;9.20;99.90
15906;DHT22;8051;50.820;4.884;2023-11-18T16:05:12;9.20;99.90
15906;DHT22;8051;50.820;4.884;2023-11-18T16:07:43;9.20;99.90
15906;DHT22;8051;50.820;4.884;2023-11-18T16:10:11;9.20;99.90
15906;DHT22;8051;50.820;4.884;2023-11-18T16:12:44;9.30;99.90
15906;DHT22;8051;50.820;4.884;2023-11-18T16:15:12;9.30;99.90
15906;DHT22;8051;50.820;4.884;2023-11-18T16:17:42;9.30;99.90
15906;DHT22;8051;50.820;4.884;2023-11-18T16:20:12;9.30;99.90
15906;DHT22;8051;50.820;4.884;2023-11-18T16:22:42;9.40;99.90
15906;DHT22;8051;50.820;4.884;2023-11-18T16:25:13;9.40;99.90